Air Navigation Services of Czech Republic  
Last data update:  20.09.2021 17:25:32 UTC česká verze
   METEO Page displayed:  20.09.2021 17:27:08 UTC  
vysvětlivky
METAR EDDB 201720Z 29004KT CAVOK 14/08 Q1023 NOSIG=
METAR EDDC 201720Z 01002KT 9999 FEW023 11/07 Q1023 NOSIG=
METAR EDDE 201720Z 09003KT 9999 BKN046 11/05 Q1023 NOSIG=
METAR EDDF 201720Z 03009KT 9999 FEW040 15/07 Q1022 NOSIG=
METAR EDDM 201720Z VRB02KT CAVOK 12/08 Q1021 NOSIG=
METAR EDDN 201720Z 02003KT 9999 FEW035 BKN045 13/07 Q1021 NOSIG=
METAR EDDP 201720Z 03002KT CAVOK 12/06 Q1023 NOSIG=
METAR EDQM 201720Z 01006KT 9999 OVC041 09/05 Q1022=
METAR EPBY 201700Z 34003KT CAVOK 12/05 Q1021=
METAR EPGD 201700Z 34009KT 9999 SCT030 10/05 Q1021=
METAR EPKK 201700Z 26007KT 9999 FEW022 BKN028 09/07 Q1020=
METAR EPKT 201700Z 31006KT 290V350 9999 -RA FEW005 BKN012 BKN024 09/08 Q1020=
METAR EPLL 201700Z VRB02KT 9999 SCT036 08/05 Q1020=
METAR EPPO 201700Z 02003KT CAVOK 12/04 Q1022=
METAR EPRZ 201700Z 32004KT 9999 FEW013CB BKN033 07/06 Q1019=
METAR EPWA 201700Z 26003KT 9999 BKN045 07/04 Q1020 NOSIG=
METAR EPWR 201700Z 32006KT CAVOK 12/07 Q1021=
METAR LHBP 201700Z 31010KT CAVOK 15/06 Q1018 NOSIG=
METAR LHSM 201645Z AUTO VRB01KT 9000 NSC 15/09 Q1020=
METAR LKBC 201730Z AUTO /////KT ///V/// 9999 OVC055 11/04 Q1022=
METAR LKCV 201700Z 28003KT 9999 FEW043 OVC060 12/07 Q1021 NOSIG RMK BLU BLU=
METAR LKKB 201700Z VRB02KT CAVOK 12/08 Q1022 NOSIG RMK BLU BLU=
METAR LKKU NIL
METAR LKKV 201700Z 04003KT 9999 BKN043 09/03 Q1022 RMK REG QNH 1017=
METAR LKLN 201730Z AUTO VRB02KT 9999 SCT045 OVC054 11/04 Q1022=
METAR LKMT 201700Z 01004KT CAVOK 11/08 Q1021 NOSIG RMK REG QNH 1017=
METAR LKNA 201700Z 32007KT CAVOK 11/05 Q1021 NOSIG RMK BLU BLU=
METAR LKPD 201700Z 32003KT CAVOK 13/06 Q1021 RMK BLACK=
METAR LKPJ 201700Z AUTO 30003KT 9999 OVC069/// 12/07 Q1020=
METAR LKPR 201700Z 03005KT 9999 FEW047 11/06 Q1022 NOSIG RMK REG QNH 1017=
METAR LKTB 201700Z 03003KT 350V090 9999 SCT036 13/06 Q1020 NOSIG RMK REG QNH 1017=
METAR LKVO NIL
METAR LOWI 201720Z 10005KT 060V120 9999 FEW030 BKN050 14/10 Q1019 NOSIG=
METAR LOWL 201720Z AUTO VRB01KT 9999 FEW040 OVC060 13/09 Q1021 NOSIG=
METAR LOWS 201720Z 22003KT 160V240 9999 FEW032 BKN048 12/11 Q1021 NOSIG=
METAR LOWW 201720Z 32006KT 9999 FEW045 13/07 Q1021 NOSIG=
METAR LZIB 201700Z VRB02KT 9999 FEW040 14/07 Q1020 NOSIG=
METAR LZKZ 201700Z 01017KT CAVOK 10/03 Q1018=
METAR LZMC NIL
METAR LZPP 201700Z 33005KT 9999 FEW035 11/06 Q1020=
METAR LZSL NIL
METAR LZTT 201700Z 15005KT 110V180 9999 SCT040 07/02 Q1018=
METAR LZZI 201700Z 34004KT 310V010 9999 FEW037 BKN055 10/06 Q1020=